createdAt,value
2018-07-30T00:00:50.324Z,28.80
2018-07-30T00:01:53.767Z,28.80
2018-07-30T00:02:57.314Z,28.82
2018-07-30T00:04:00.738Z,28.80
2018-07-30T00:05:04.225Z,28.80
2018-07-30T00:06:07.676Z,28.82
2018-07-30T00:07:11.087Z,28.82
2018-07-30T00:08:14.490Z,28.81
2018-07-30T00:09:17.919Z,28.82
2018-07-30T00:10:21.332Z,28.81
2018-07-30T00:11:24.923Z,28.81
2018-07-30T00:12:28.314Z,28.82
2018-07-30T00:13:31.698Z,28.82
2018-07-30T00:14:35.092Z,28.83
2018-07-30T00:15:38.540Z,28.82
2018-07-30T00:16:41.960Z,28.82
2018-07-30T00:17:45.371Z,28.81
2018-07-30T00:18:49.016Z,28.83
2018-07-30T00:19:52.430Z,28.83
2018-07-30T00:20:55.835Z,28.82
2018-07-30T00:21:59.255Z,28.82
2018-07-30T00:23:02.642Z,28.81
2018-07-30T00:24:06.025Z,28.82
2018-07-30T00:25:10.135Z,28.82
2018-07-30T00:26:13.544Z,28.83
2018-07-30T00:27:16.964Z,28.84
2018-07-30T00:28:20.358Z,28.84
2018-07-30T00:29:23.717Z,28.84
2018-07-30T00:30:27.125Z,28.85
2018-07-30T00:31:30.554Z,28.85
2018-07-30T00:32:33.932Z,28.83
2018-07-30T00:33:37.324Z,28.85
2018-07-30T00:34:40.716Z,28.84
2018-07-30T00:35:44.100Z,28.83
2018-07-30T00:36:47.529Z,28.84
2018-07-30T00:37:51.251Z,28.84
2018-07-30T00:38:54.655Z,28.85
2018-07-30T00:39:58.079Z,28.84
2018-07-30T00:41:01.468Z,28.84
2018-07-30T00:42:04.965Z,28.84
2018-07-30T00:43:08.372Z,28.84
2018-07-30T00:44:11.766Z,28.84
2018-07-30T00:45:15.171Z,28.84
2018-07-30T00:46:18.558Z,28.83
2018-07-30T00:47:21.950Z,28.84
2018-07-30T00:48:25.376Z,28.83
2018-07-30T00:49:28.778Z,28.84
2018-07-30T00:50:32.212Z,28.84
2018-07-30T00:51:35.821Z,28.85
2018-07-30T00:52:39.426Z,28.83
2018-07-30T00:53:42.853Z,28.84
2018-07-30T00:54:46.249Z,28.83
2018-07-30T00:55:49.634Z,28.84
2018-07-30T00:56:53.068Z,28.83
2018-07-30T00:57:56.438Z,28.83
2018-07-30T00:58:59.917Z,28.83
2018-07-30T01:00:03.369Z,28.83
2018-07-30T01:01:06.774Z,28.84
2018-07-30T01:02:10.225Z,28.84
2018-07-30T01:03:13.604Z,28.84
2018-07-30T01:04:16.997Z,28.84
2018-07-30T01:05:20.362Z,28.84
2018-07-30T01:06:23.786Z,28.83
2018-07-30T01:07:27.162Z,28.84
2018-07-30T01:08:30.529Z,28.83
2018-07-30T01:09:33.936Z,28.84
2018-07-30T01:10:37.307Z,28.84
2018-07-30T01:11:40.731Z,28.83
2018-07-30T01:12:44.108Z,28.83
2018-07-30T01:13:47.528Z,28.83
2018-07-30T01:14:50.936Z,28.83
2018-07-30T01:15:54.315Z,28.84
2018-07-30T01:16:57.724Z,28.83
2018-07-30T01:18:01.110Z,28.84
2018-07-30T01:19:04.502Z,28.82
2018-07-30T01:20:08.043Z,28.81
2018-07-30T01:21:11.461Z,28.81
2018-07-30T01:22:14.878Z,28.83
2018-07-30T01:23:18.264Z,28.82
2018-07-30T01:24:21.656Z,28.82
2018-07-30T01:25:25.108Z,28.81
2018-07-30T01:26:29.588Z,28.81
2018-07-30T01:27:32.959Z,28.82
2018-07-30T01:28:36.326Z,28.82
2018-07-30T01:29:39.711Z,28.81
2018-07-30T01:30:43.136Z,28.82
2018-07-30T01:31:46.509Z,28.82
2018-07-30T01:32:49.892Z,28.81
2018-07-30T01:33:53.786Z,28.81
2018-07-30T01:34:57.149Z,28.82
2018-07-30T01:36:00.534Z,28.81
2018-07-30T01:37:03.948Z,28.81
2018-07-30T01:38:07.358Z,28.81
2018-07-30T01:39:10.737Z,28.81
2018-07-30T01:40:14.243Z,28.81
2018-07-30T01:41:17.853Z,28.81
2018-07-30T01:42:21.226Z,28.81
2018-07-30T01:43:24.622Z,28.80
2018-07-30T01:44:28.038Z,28.80
2018-07-30T01:45:31.426Z,28.79
2018-07-30T01:46:34.824Z,28.80
2018-07-30T01:47:38.224Z,28.80
2018-07-30T01:48:41.666Z,28.81
2018-07-30T01:49:45.044Z,28.81
2018-07-30T01:50:48.457Z,28.82
2018-07-30T01:51:51.907Z,28.81
2018-07-30T01:52:55.318Z,28.81
2018-07-30T01:53:58.697Z,28.83
2018-07-30T01:55:02.095Z,28.83
2018-07-30T01:56:05.952Z,28.82
2018-07-30T01:57:09.395Z,28.82
2018-07-30T01:58:12.928Z,28.83
2018-07-30T01:59:16.317Z,28.82
2018-07-30T02:00:19.722Z,28.81
2018-07-30T02:01:23.130Z,28.82
2018-07-30T02:02:26.548Z,28.82
2018-07-30T02:03:29.964Z,28.83
2018-07-30T02:04:33.359Z,28.81
2018-07-30T02:05:36.767Z,28.82
2018-07-30T02:06:40.188Z,28.81
2018-07-30T02:07:43.608Z,28.81
2018-07-30T02:08:47.000Z,28.82
2018-07-30T02:09:50.530Z,28.80
2018-07-30T02:10:53.924Z,28.81
2018-07-30T02:11:57.324Z,28.80
2018-07-30T02:13:00.715Z,28.81
2018-07-30T02:14:04.609Z,28.80
2018-07-30T02:15:08.549Z,28.81
2018-07-30T02:16:11.990Z,28.80
2018-07-30T02:17:15.370Z,28.80
2018-07-30T02:18:18.800Z,28.80
2018-07-30T02:19:22.201Z,28.80
2018-07-30T02:20:25.580Z,28.80
2018-07-30T02:21:29.048Z,28.80
2018-07-30T02:22:32.781Z,28.80
2018-07-30T02:23:36.218Z,28.81
2018-07-30T02:24:39.590Z,28.80
2018-07-30T02:25:43.040Z,28.80
2018-07-30T02:26:46.426Z,28.80
2018-07-30T02:27:49.840Z,28.80
2018-07-30T02:28:53.263Z,28.80
2018-07-30T02:29:56.653Z,28.80
2018-07-30T02:31:00.050Z,28.81
2018-07-30T02:32:03.457Z,28.81
2018-07-30T02:33:06.845Z,28.81
2018-07-30T02:34:10.686Z,28.83
2018-07-30T02:35:14.062Z,28.81
2018-07-30T02:36:17.499Z,28.82
2018-07-30T02:37:20.929Z,28.80
2018-07-30T02:38:24.354Z,28.80
2018-07-30T02:39:27.746Z,28.81
2018-07-30T02:40:31.166Z,28.81
2018-07-30T02:41:34.576Z,28.81
2018-07-30T02:42:37.981Z,28.81
2018-07-30T02:43:41.427Z,28.81
2018-07-30T02:44:44.908Z,28.79
2018-07-30T02:45:48.702Z,28.81
2018-07-30T02:46:52.125Z,28.81
2018-07-30T02:47:55.532Z,28.80
2018-07-30T02:48:58.964Z,28.82
2018-07-30T02:50:02.391Z,28.82
2018-07-30T02:51:05.841Z,28.82
2018-07-30T02:52:09.335Z,28.81
2018-07-30T02:53:12.752Z,28.79
2018-07-30T02:54:16.171Z,28.73
2018-07-30T02:55:19.577Z,28.66
2018-07-30T02:56:22.983Z,28.60
2018-07-30T02:57:26.437Z,28.53
2018-07-30T02:58:29.835Z,28.44
2018-07-30T02:59:33.221Z,28.34
2018-07-30T03:00:36.640Z,28.27
2018-07-30T03:01:40.073Z,28.16
2018-07-30T03:02:43.499Z,28.08
2018-07-30T03:03:46.902Z,28.00
2018-07-30T03:04:50.302Z,27.93
2018-07-30T03:05:53.799Z,27.87
2018-07-30T03:06:57.215Z,27.84
2018-07-30T03:08:00.604Z,27.81
2018-07-30T03:09:04.582Z,27.78
2018-07-30T03:10:08.231Z,27.74
2018-07-30T03:11:11.704Z,27.70
2018-07-30T03:12:15.108Z,27.66
2018-07-30T03:13:18.680Z,27.60
2018-07-30T03:14:22.081Z,27.52
2018-07-30T03:15:25.462Z,27.47
2018-07-30T03:16:28.901Z,27.42
2018-07-30T03:17:32.276Z,27.38
2018-07-30T03:18:35.765Z,27.32
2018-07-30T03:19:39.234Z,27.26
2018-07-30T03:20:42.660Z,27.18
2018-07-30T03:21:46.099Z,27.11
2018-07-30T03:22:49.491Z,27.04
2018-07-30T03:23:52.911Z,27.01
2018-07-30T03:24:56.294Z,26.97
2018-07-30T03:25:59.677Z,26.97
2018-07-30T03:27:03.075Z,26.99
2018-07-30T03:28:06.476Z,27.02
2018-07-30T03:29:09.917Z,27.05
2018-07-30T03:30:13.373Z,27.08
2018-07-30T03:31:16.874Z,27.11
2018-07-30T03:32:20.364Z,27.15
2018-07-30T03:33:23.795Z,27.18
2018-07-30T03:34:27.208Z,27.20
2018-07-30T03:35:30.627Z,27.22
2018-07-30T03:36:33.989Z,27.25
2018-07-30T03:37:37.613Z,27.27
2018-07-30T03:38:41.005Z,27.29
2018-07-30T03:39:44.397Z,27.30
2018-07-30T03:40:47.778Z,27.33
2018-07-30T03:41:51.157Z,27.34
2018-07-30T03:42:54.593Z,27.37
2018-07-30T03:43:57.976Z,27.39
2018-07-30T03:45:01.356Z,27.40
2018-07-30T03:46:04.780Z,27.41
2018-07-30T03:47:08.166Z,27.44
2018-07-30T03:48:11.577Z,27.45
2018-07-30T03:49:15.037Z,27.45
2018-07-30T03:50:18.557Z,27.45
2018-07-30T03:51:21.956Z,27.47
2018-07-30T03:52:25.350Z,27.48
2018-07-30T03:53:28.786Z,27.50
2018-07-30T03:54:32.192Z,27.51
2018-07-30T03:55:35.550Z,27.52
2018-07-30T03:56:38.972Z,27.53
2018-07-30T03:57:42.392Z,27.53
2018-07-30T03:58:45.806Z,27.53
2018-07-30T03:59:49.227Z,27.53
2018-07-30T04:00:52.616Z,27.54
2018-07-30T04:01:56.188Z,27.53
2018-07-30T04:02:59.589Z,27.52
2018-07-30T04:04:03.006Z,27.51
2018-07-30T04:05:06.444Z,27.50
2018-07-30T04:06:09.859Z,27.49
2018-07-30T04:07:13.253Z,27.48
2018-07-30T04:08:16.802Z,27.47
2018-07-30T04:09:20.212Z,27.46
2018-07-30T04:10:23.611Z,27.47
2018-07-30T04:11:26.984Z,27.46
2018-07-30T04:12:30.391Z,27.45
2018-07-30T04:13:33.819Z,27.44
2018-07-30T04:14:37.195Z,27.43
2018-07-30T04:15:40.580Z,27.42
2018-07-30T04:16:51.412Z,27.40
2018-07-30T04:17:54.918Z,27.38
2018-07-30T04:18:58.322Z,27.33
2018-07-30T04:20:01.715Z,27.30
2018-07-30T04:21:05.092Z,27.24
2018-07-30T04:22:08.548Z,27.19
2018-07-30T04:23:11.926Z,27.11
2018-07-30T04:24:15.561Z,27.07
2018-07-30T04:25:18.926Z,26.99
2018-07-30T04:26:22.331Z,26.95
2018-07-30T04:27:25.736Z,26.89
2018-07-30T04:28:29.138Z,26.84
2018-07-30T04:29:32.535Z,26.79
2018-07-30T04:30:35.916Z,26.73
2018-07-30T04:31:39.358Z,26.73
2018-07-30T04:32:42.880Z,26.67
2018-07-30T04:33:46.272Z,26.68
2018-07-30T04:34:49.668Z,26.68
2018-07-30T04:35:53.218Z,26.71
2018-07-30T04:36:56.634Z,26.73
2018-07-30T04:38:00.034Z,26.70
2018-07-30T04:39:03.531Z,26.67
2018-07-30T04:40:06.963Z,26.65
2018-07-30T04:41:10.355Z,26.61
2018-07-30T04:42:13.726Z,26.54
2018-07-30T04:43:17.123Z,26.51
2018-07-30T04:44:20.543Z,26.45
2018-07-30T04:45:23.972Z,26.40
2018-07-30T04:46:27.369Z,26.34
2018-07-30T04:47:30.770Z,26.33
2018-07-30T04:48:34.169Z,26.31
2018-07-30T04:49:37.552Z,26.29
2018-07-30T04:50:41.035Z,26.30
2018-07-30T04:51:44.423Z,26.31
2018-07-30T04:52:48.084Z,26.33
2018-07-30T04:53:51.490Z,26.32
2018-07-30T04:54:54.924Z,26.36
2018-07-30T04:55:58.344Z,26.40
2018-07-30T04:57:01.872Z,26.41
2018-07-30T04:58:05.282Z,26.45
2018-07-30T04:59:08.710Z,26.48
2018-07-30T05:00:12.187Z,26.52
2018-07-30T05:01:15.616Z,26.55
2018-07-30T05:02:19.000Z,26.59
2018-07-30T05:03:22.376Z,26.62
2018-07-30T05:04:25.753Z,26.66
2018-07-30T05:05:29.180Z,26.67
2018-07-30T05:06:32.569Z,26.70
2018-07-30T05:07:36.145Z,26.74
2018-07-30T05:08:39.537Z,26.77
2018-07-30T05:09:42.936Z,26.79
2018-07-30T05:10:46.325Z,26.81
2018-07-30T05:11:49.735Z,26.82
2018-07-30T05:12:53.134Z,26.84
2018-07-30T05:13:56.528Z,26.87
2018-07-30T05:14:59.990Z,26.88
2018-07-30T05:16:03.427Z,26.89
2018-07-30T05:17:07.071Z,26.88
2018-07-30T05:18:10.504Z,26.87
2018-07-30T05:19:13.924Z,26.89
2018-07-30T05:20:17.308Z,26.89
2018-07-30T05:21:20.702Z,26.92
2018-07-30T05:22:24.117Z,26.92
2018-07-30T05:23:27.538Z,26.93
2018-07-30T05:24:30.954Z,26.95
2018-07-30T05:25:34.405Z,26.96
2018-07-30T05:26:37.822Z,26.98
2018-07-30T05:27:41.375Z,26.99
2018-07-30T05:28:44.757Z,26.99
2018-07-30T05:29:48.136Z,26.98
2018-07-30T05:30:51.920Z,26.96
2018-07-30T05:31:56.102Z,26.95
2018-07-30T05:32:59.541Z,26.92
2018-07-30T05:34:02.937Z,26.89
2018-07-30T05:35:06.421Z,26.89
2018-07-30T05:36:10.052Z,26.84
2018-07-30T05:37:13.490Z,26.72
2018-07-30T05:38:16.969Z,26.71
2018-07-30T05:39:20.581Z,26.69
2018-07-30T05:40:24.046Z,26.54
2018-07-30T05:41:27.453Z,26.50
2018-07-30T05:42:31.335Z,26.47
2018-07-30T05:43:34.865Z,26.45
2018-07-30T05:44:38.243Z,26.47
2018-07-30T05:45:42.012Z,26.41
2018-07-30T05:46:45.416Z,26.40
2018-07-30T05:47:48.803Z,26.41
2018-07-30T05:48:52.332Z,26.43
2018-07-30T05:49:55.728Z,26.43
2018-07-30T05:50:59.145Z,26.42
2018-07-30T05:52:02.563Z,26.38
2018-07-30T05:53:05.984Z,26.32
2018-07-30T05:54:09.401Z,26.25
2018-07-30T05:55:12.850Z,26.19
2018-07-30T05:56:16.277Z,26.15
2018-07-30T05:57:19.695Z,26.12
2018-07-30T05:58:23.093Z,26.14
2018-07-30T05:59:26.605Z,26.15
2018-07-30T06:00:30.015Z,26.18
2018-07-30T06:01:33.451Z,26.21
2018-07-30T06:02:36.848Z,26.20
2018-07-30T06:03:40.315Z,26.21
2018-07-30T06:04:43.766Z,26.26
2018-07-30T06:05:47.194Z,26.30
2018-07-30T06:06:50.639Z,26.36
2018-07-30T06:07:54.087Z,26.39
2018-07-30T06:08:57.472Z,26.42
2018-07-30T06:10:00.895Z,26.47
2018-07-30T06:11:04.297Z,26.50
2018-07-30T06:12:07.740Z,26.53
2018-07-30T06:13:11.134Z,26.56
2018-07-30T06:14:14.550Z,26.58
2018-07-30T06:15:18.026Z,26.62
2018-07-30T06:16:21.423Z,26.64
2018-07-30T06:17:24.834Z,26.67
2018-07-30T06:18:28.489Z,26.69
2018-07-30T06:19:31.894Z,26.71
2018-07-30T06:20:35.323Z,26.72
2018-07-30T06:21:39.073Z,26.75
2018-07-30T06:22:42.483Z,26.75
2018-07-30T06:23:45.905Z,26.77
2018-07-30T06:24:49.479Z,26.78
2018-07-30T06:25:52.908Z,26.79
2018-07-30T06:26:56.344Z,26.80
2018-07-30T06:27:59.737Z,26.81
2018-07-30T06:29:03.191Z,26.83
2018-07-30T06:30:08.026Z,26.83
2018-07-30T06:31:11.452Z,26.83
2018-07-30T06:32:14.888Z,26.84
2018-07-30T06:33:18.311Z,26.86
2018-07-30T06:34:21.730Z,26.86
2018-07-30T06:35:25.118Z,26.86
2018-07-30T06:36:28.514Z,26.87
2018-07-30T06:37:32.018Z,26.88
2018-07-30T06:38:35.489Z,26.88
2018-07-30T06:39:38.836Z,26.90
2018-07-30T06:40:42.301Z,26.90
2018-07-30T06:41:45.721Z,26.91
2018-07-30T06:42:49.154Z,26.91
2018-07-30T06:43:52.533Z,26.92
2018-07-30T06:44:55.930Z,26.93
2018-07-30T06:45:59.314Z,26.93
2018-07-30T06:47:02.730Z,26.95
2018-07-30T06:48:06.152Z,26.95
2018-07-30T06:49:09.554Z,26.96
2018-07-30T06:50:12.971Z,26.98
2018-07-30T06:51:16.376Z,26.98
2018-07-30T06:52:19.781Z,26.99
2018-07-30T06:53:23.262Z,27.00
2018-07-30T06:54:26.595Z,27.00
2018-07-30T06:55:30.066Z,27.01
2018-07-30T06:56:33.515Z,27.02
2018-07-30T06:57:36.974Z,27.03
2018-07-30T06:58:40.404Z,27.02
2018-07-30T06:59:43.812Z,27.04
2018-07-30T07:00:47.212Z,27.03
2018-07-30T07:01:51.114Z,27.05
2018-07-30T07:02:54.493Z,27.06
2018-07-30T07:03:57.905Z,27.05
2018-07-30T07:05:01.298Z,27.06
2018-07-30T07:06:04.743Z,27.07
2018-07-30T07:07:08.205Z,27.07
2018-07-30T07:08:11.624Z,27.07
2018-07-30T07:09:15.044Z,27.08
2018-07-30T07:10:18.479Z,27.10
2018-07-30T07:11:21.894Z,27.09
2018-07-30T07:12:25.308Z,27.09
2018-07-30T07:13:28.689Z,27.08
2018-07-30T07:14:32.092Z,27.09
2018-07-30T07:15:35.475Z,27.10
2018-07-30T07:16:39.211Z,27.10
2018-07-30T07:17:43.439Z,27.10
2018-07-30T07:18:46.889Z,27.11
2018-07-30T07:19:50.283Z,27.12
2018-07-30T07:20:53.931Z,27.11
2018-07-30T07:21:57.433Z,27.11
2018-07-30T07:23:00.830Z,27.12
2018-07-30T07:24:04.252Z,27.14
2018-07-30T07:25:07.936Z,27.14
2018-07-30T07:26:11.353Z,27.14
2018-07-30T07:27:14.745Z,27.14
2018-07-30T07:28:18.170Z,27.15
2018-07-30T07:29:21.619Z,27.15
2018-07-30T07:30:25.020Z,27.15
2018-07-30T07:31:28.440Z,27.15
2018-07-30T07:32:31.856Z,27.15
2018-07-30T07:33:35.271Z,27.16
2018-07-30T07:34:38.727Z,27.17
2018-07-30T07:35:42.233Z,27.19
2018-07-30T07:36:45.650Z,27.19
2018-07-30T07:37:49.066Z,27.21
2018-07-30T07:38:52.593Z,27.23
2018-07-30T07:39:56.041Z,27.22
2018-07-30T07:40:59.476Z,27.22
2018-07-30T07:42:02.934Z,27.22
2018-07-30T07:43:06.366Z,27.26
2018-07-30T07:44:09.790Z,27.27
2018-07-30T07:45:13.207Z,27.27
2018-07-30T07:46:16.650Z,27.28
2018-07-30T07:47:20.063Z,27.29
2018-07-30T07:48:23.548Z,27.29
2018-07-30T07:49:27.029Z,27.31
2018-07-30T07:50:30.509Z,27.31
2018-07-30T07:51:33.865Z,27.31
2018-07-30T07:52:37.275Z,27.33
2018-07-30T07:53:41.168Z,27.33
2018-07-30T07:54:46.332Z,27.32
2018-07-30T07:55:50.460Z,27.33
2018-07-30T07:56:53.877Z,27.34
2018-07-30T07:57:57.308Z,27.34
2018-07-30T07:59:00.734Z,27.35
2018-07-30T08:00:05.853Z,27.35
2018-07-30T08:01:09.284Z,27.36
2018-07-30T08:02:12.690Z,27.36
2018-07-30T08:03:16.079Z,27.36
2018-07-30T08:04:19.563Z,27.40
2018-07-30T08:05:22.972Z,27.40
2018-07-30T08:06:26.369Z,27.39
2018-07-30T08:07:29.776Z,27.41
2018-07-30T08:08:33.195Z,27.41
2018-07-30T08:09:36.623Z,27.41
2018-07-30T08:10:40.048Z,27.41
2018-07-30T08:11:43.500Z,27.41
2018-07-30T08:12:46.890Z,27.41
2018-07-30T08:13:50.282Z,27.41
2018-07-30T08:14:53.650Z,27.41
2018-07-30T08:15:57.092Z,27.42
2018-07-30T08:17:01.077Z,27.43
2018-07-30T08:18:04.509Z,27.42
2018-07-30T08:19:07.932Z,27.43
2018-07-30T08:20:11.318Z,27.42
2018-07-30T08:21:14.744Z,27.42
2018-07-30T08:22:18.156Z,27.43
2018-07-30T08:23:21.568Z,27.43
2018-07-30T08:24:24.937Z,27.43
2018-07-30T08:25:28.387Z,27.44
2018-07-30T08:26:31.799Z,27.44
2018-07-30T08:27:35.217Z,27.43
2018-07-30T08:28:38.714Z,27.43
2018-07-30T08:29:42.088Z,27.44
2018-07-30T08:30:45.644Z,27.43
2018-07-30T08:31:49.097Z,27.44
2018-07-30T08:32:52.539Z,27.44
2018-07-30T08:33:55.936Z,27.44
2018-07-30T08:34:59.336Z,27.44
2018-07-30T08:36:02.779Z,27.45
2018-07-30T08:37:06.232Z,27.45
2018-07-30T08:38:09.655Z,27.44
2018-07-30T08:39:13.114Z,27.45
2018-07-30T08:40:16.564Z,27.45
2018-07-30T08:41:19.960Z,27.46
2018-07-30T08:42:23.640Z,27.45
2018-07-30T08:43:27.069Z,27.46
2018-07-30T08:44:30.452Z,27.46
2018-07-30T08:45:33.917Z,27.46
2018-07-30T08:46:37.299Z,27.45
2018-07-30T08:47:40.747Z,27.47
2018-07-30T08:48:44.200Z,27.46
2018-07-30T08:49:47.592Z,27.46
2018-07-30T08:50:50.965Z,27.48
2018-07-30T08:51:54.356Z,27.48
2018-07-30T08:52:57.792Z,27.46
2018-07-30T08:54:01.423Z,27.47
2018-07-30T08:55:05.816Z,27.47
2018-07-30T08:56:09.254Z,27.47
2018-07-30T08:57:12.658Z,27.47
2018-07-30T08:58:16.057Z,27.47
2018-07-30T08:59:19.487Z,27.48
2018-07-30T09:00:22.901Z,27.48
2018-07-30T09:01:26.333Z,27.48
2018-07-30T09:02:29.756Z,27.49
2018-07-30T09:03:33.180Z,27.50
2018-07-30T09:04:36.594Z,27.50
2018-07-30T09:05:40.062Z,27.50
2018-07-30T09:06:43.466Z,27.50
2018-07-30T09:07:46.952Z,27.51
2018-07-30T09:08:50.330Z,27.51
2018-07-30T09:09:53.736Z,27.51
2018-07-30T09:10:57.164Z,27.53
2018-07-30T09:12:00.551Z,27.54
2018-07-30T09:13:03.967Z,27.53
2018-07-30T09:14:07.886Z,27.54
2018-07-30T09:15:11.272Z,27.54
2018-07-30T09:16:14.747Z,27.55
2018-07-30T09:17:18.125Z,27.56
2018-07-30T09:18:21.589Z,27.56
2018-07-30T09:19:24.978Z,27.56
2018-07-30T09:20:28.364Z,27.57
2018-07-30T09:21:31.754Z,27.57
2018-07-30T09:22:35.211Z,27.58
2018-07-30T09:23:38.602Z,27.58
2018-07-30T09:24:42.006Z,27.58
2018-07-30T09:25:45.443Z,27.59
2018-07-30T09:26:48.867Z,27.61
2018-07-30T09:27:52.288Z,27.61
2018-07-30T09:28:55.687Z,27.63
2018-07-30T09:29:59.114Z,27.62
2018-07-30T09:31:02.501Z,27.61
2018-07-30T09:32:05.921Z,27.61
2018-07-30T09:33:09.349Z,27.60
2018-07-30T09:34:12.765Z,27.61
2018-07-30T09:35:16.199Z,27.61
2018-07-30T09:36:23.426Z,27.61
2018-07-30T09:37:26.835Z,27.61
2018-07-30T09:38:30.241Z,27.60
2018-07-30T09:39:33.737Z,27.61
2018-07-30T09:40:37.161Z,27.61
2018-07-30T09:41:40.848Z,27.60
2018-07-30T09:42:44.242Z,27.61
2018-07-30T09:43:48.016Z,27.60
2018-07-30T09:44:51.478Z,27.60
2018-07-30T09:45:54.884Z,27.60
2018-07-30T09:46:58.410Z,27.61
2018-07-30T09:48:01.789Z,27.60
2018-07-30T09:49:05.232Z,27.62
2018-07-30T09:50:08.685Z,27.62
2018-07-30T09:51:12.152Z,27.62
2018-07-30T09:52:15.545Z,27.62
2018-07-30T09:53:18.965Z,27.62
2018-07-30T09:54:22.348Z,27.62
2018-07-30T09:55:25.760Z,27.62
2018-07-30T09:56:29.194Z,27.61
2018-07-30T09:57:32.601Z,27.63
2018-07-30T09:58:36.241Z,27.63
2018-07-30T09:59:39.660Z,27.62
2018-07-30T10:00:48.476Z,27.62
2018-07-30T10:01:51.878Z,27.63
2018-07-30T10:02:55.298Z,27.62
2018-07-30T10:03:59.788Z,27.64
2018-07-30T10:05:03.213Z,27.66
2018-07-30T10:06:06.630Z,27.66
2018-07-30T10:07:10.137Z,27.65
2018-07-30T10:08:13.552Z,27.66
2018-07-30T10:09:16.929Z,27.65
2018-07-30T10:10:20.394Z,27.65
2018-07-30T10:11:23.836Z,27.66
2018-07-30T10:12:27.335Z,27.66
2018-07-30T10:13:30.826Z,27.66
2018-07-30T10:14:34.231Z,27.67
2018-07-30T10:15:38.895Z,27.67
2018-07-30T10:16:42.462Z,27.67
2018-07-30T10:17:46.296Z,27.66
2018-07-30T10:18:49.660Z,27.67
2018-07-30T10:19:53.042Z,27.67
2018-07-30T10:20:56.430Z,27.66
2018-07-30T10:21:59.838Z,27.68
2018-07-30T10:23:03.264Z,27.67
2018-07-30T10:24:06.692Z,27.68
2018-07-30T10:25:10.173Z,27.68
2018-07-30T10:26:13.568Z,27.71
2018-07-30T10:27:16.962Z,27.71
2018-07-30T10:28:20.373Z,27.70
2018-07-30T10:29:23.768Z,27.70
2018-07-30T10:30:27.166Z,27.71
2018-07-30T10:31:30.547Z,27.69
2018-07-30T10:32:33.966Z,27.70
2018-07-30T10:33:37.462Z,27.70
2018-07-30T10:34:41.068Z,27.70
2018-07-30T10:35:44.476Z,27.70
2018-07-30T10:36:47.880Z,27.69
2018-07-30T10:37:51.431Z,27.71
2018-07-30T10:38:54.934Z,27.72
2018-07-30T10:39:58.404Z,27.72
2018-07-30T10:41:01.727Z,27.72
2018-07-30T10:42:05.181Z,27.73
2018-07-30T10:43:08.601Z,27.74
2018-07-30T10:44:12.022Z,27.73
2018-07-30T10:45:15.437Z,27.73
2018-07-30T10:46:18.864Z,27.74
2018-07-30T10:47:22.331Z,27.75
2018-07-30T10:48:25.753Z,27.75
2018-07-30T10:49:29.203Z,27.75
2018-07-30T10:50:32.616Z,27.76
2018-07-30T10:51:36.005Z,27.78
2018-07-30T10:52:39.448Z,27.77
2018-07-30T10:53:43.156Z,27.77
2018-07-30T10:54:46.611Z,27.78
2018-07-30T10:55:50.120Z,27.78
2018-07-30T10:56:53.546Z,27.78
2018-07-30T10:57:57.046Z,27.78
2018-07-30T10:59:00.460Z,27.79
2018-07-30T11:00:03.937Z,27.80
2018-07-30T11:01:07.555Z,27.80
2018-07-30T11:02:10.956Z,27.80
2018-07-30T11:03:14.352Z,27.79
2018-07-30T11:04:17.748Z,27.80
2018-07-30T11:05:21.197Z,27.79
2018-07-30T11:06:24.608Z,27.78
2018-07-30T11:07:28.042Z,27.78
2018-07-30T11:08:31.446Z,27.78
2018-07-30T11:09:34.842Z,27.77
2018-07-30T11:10:38.283Z,27.76
2018-07-30T11:11:41.680Z,27.77
2018-07-30T11:12:45.081Z,27.76
2018-07-30T11:13:48.535Z,27.77
2018-07-30T11:14:51.923Z,27.76
2018-07-30T11:15:55.339Z,27.76
2018-07-30T11:16:58.735Z,27.76
2018-07-30T11:18:02.364Z,27.76
2018-07-30T11:19:06.060Z,27.75
2018-07-30T11:20:09.521Z,27.75
2018-07-30T11:21:12.958Z,27.75
2018-07-30T11:22:16.371Z,27.75
2018-07-30T11:23:19.843Z,27.75
2018-07-30T11:24:23.224Z,27.74
2018-07-30T11:25:26.707Z,27.76
2018-07-30T11:26:30.104Z,27.73
2018-07-30T11:27:33.485Z,27.75
2018-07-30T11:28:36.907Z,27.75
2018-07-30T11:29:40.292Z,27.75
2018-07-30T11:30:43.723Z,27.74
2018-07-30T11:31:47.173Z,27.74
2018-07-30T11:32:50.700Z,27.75
2018-07-30T11:33:54.104Z,27.74
2018-07-30T11:34:57.494Z,27.75
2018-07-30T11:36:00.907Z,27.75
2018-07-30T11:37:04.294Z,27.75
2018-07-30T11:38:07.671Z,27.76
2018-07-30T11:39:12.465Z,27.75
2018-07-30T11:40:15.856Z,27.76
2018-07-30T11:41:19.259Z,27.75
2018-07-30T11:42:22.629Z,27.74
2018-07-30T11:43:26.004Z,27.75
2018-07-30T11:44:29.404Z,27.75
2018-07-30T11:45:32.805Z,27.76
2018-07-30T11:46:36.222Z,27.76
2018-07-30T11:47:39.606Z,27.77
2018-07-30T11:48:43.227Z,27.76
2018-07-30T11:49:46.577Z,27.76
2018-07-30T11:50:49.975Z,27.76
2018-07-30T11:51:53.410Z,27.76
2018-07-30T11:52:56.816Z,27.76
2018-07-30T11:54:00.236Z,27.77
2018-07-30T11:55:03.618Z,27.76
2018-07-30T11:56:07.027Z,27.77
2018-07-30T11:57:10.442Z,27.77
2018-07-30T11:58:13.842Z,27.77
2018-07-30T11:59:17.240Z,27.77
2018-07-30T12:00:20.928Z,27.78
2018-07-30T12:01:25.020Z,27.78
2018-07-30T12:02:28.333Z,27.77
2018-07-30T12:03:31.717Z,27.77
2018-07-30T12:04:35.108Z,27.78
2018-07-30T12:05:38.478Z,27.77
2018-07-30T12:06:41.884Z,27.78
2018-07-30T12:07:45.265Z,27.77
2018-07-30T12:08:48.711Z,27.78
2018-07-30T12:09:52.074Z,27.78
2018-07-30T12:10:55.468Z,27.78
2018-07-30T12:11:58.834Z,27.79
2018-07-30T12:13:02.236Z,27.80
2018-07-30T12:14:05.672Z,27.79
2018-07-30T12:15:09.284Z,27.79
2018-07-30T12:16:12.844Z,27.79
2018-07-30T12:17:16.251Z,27.79
2018-07-30T12:18:19.674Z,27.78
2018-07-30T12:19:23.107Z,27.80
2018-07-30T12:20:26.505Z,27.79
2018-07-30T12:21:29.930Z,27.79
2018-07-30T12:22:33.342Z,27.80
2018-07-30T12:23:36.805Z,27.80
2018-07-30T12:24:40.129Z,27.80
2018-07-30T12:25:43.576Z,27.80
2018-07-30T12:26:47.022Z,27.80
2018-07-30T12:27:50.448Z,27.79
2018-07-30T12:28:53.841Z,27.81
2018-07-30T12:29:57.264Z,27.80
2018-07-30T12:31:00.667Z,27.81
2018-07-30T12:32:04.468Z,27.81
2018-07-30T12:33:07.869Z,27.81
2018-07-30T12:34:11.282Z,27.82
2018-07-30T12:35:14.699Z,27.81
2018-07-30T12:36:18.217Z,27.82
2018-07-30T12:37:21.526Z,27.82
2018-07-30T12:38:24.922Z,27.81
2018-07-30T12:39:28.335Z,27.82
2018-07-30T12:40:35.889Z,27.82
2018-07-30T12:41:39.487Z,27.83
2018-07-30T12:42:42.861Z,27.83
2018-07-30T12:43:46.277Z,27.82
2018-07-30T12:44:49.719Z,27.82
2018-07-30T12:45:53.096Z,27.82
2018-07-30T12:46:56.506Z,27.83
2018-07-30T12:47:59.885Z,27.84
2018-07-30T12:49:03.622Z,27.84
2018-07-30T12:50:07.101Z,27.84
2018-07-30T12:51:10.542Z,27.84
2018-07-30T12:52:14.003Z,27.83
2018-07-30T12:53:17.419Z,27.84
2018-07-30T12:54:20.811Z,27.84
2018-07-30T12:55:24.244Z,27.84
2018-07-30T12:56:27.627Z,27.84
2018-07-30T12:57:31.051Z,27.84
2018-07-30T12:58:34.439Z,27.85
2018-07-30T12:59:38.205Z,27.84
2018-07-30T13:00:41.674Z,27.85
2018-07-30T13:01:45.046Z,27.84
2018-07-30T13:02:48.522Z,27.85
2018-07-30T13:03:51.912Z,27.85
2018-07-30T13:04:55.316Z,27.85
2018-07-30T13:05:58.796Z,27.84
2018-07-30T13:07:02.212Z,27.85
2018-07-30T13:08:05.608Z,27.86
2018-07-30T13:09:09.281Z,27.86
2018-07-30T13:10:12.727Z,27.86
2018-07-30T13:11:16.149Z,27.86
2018-07-30T13:12:19.540Z,27.86
2018-07-30T13:13:22.936Z,27.87
2018-07-30T13:14:26.311Z,27.86
2018-07-30T13:15:29.699Z,27.87
2018-07-30T13:16:33.127Z,27.87
2018-07-30T13:17:36.550Z,27.87
2018-07-30T13:18:39.960Z,27.88
2018-07-30T13:19:43.386Z,27.87
2018-07-30T13:20:46.768Z,27.87
2018-07-30T13:21:50.214Z,27.87
2018-07-30T13:22:53.636Z,27.88
2018-07-30T13:23:57.032Z,27.88
2018-07-30T13:25:00.559Z,27.88
2018-07-30T13:26:03.984Z,27.89
2018-07-30T13:27:07.390Z,27.88
2018-07-30T13:28:10.816Z,27.89
2018-07-30T13:29:14.514Z,27.89
2018-07-30T13:30:18.102Z,27.90
2018-07-30T13:31:21.515Z,27.89
2018-07-30T13:32:24.942Z,27.89
2018-07-30T13:33:28.375Z,27.89
2018-07-30T13:34:31.764Z,27.90
2018-07-30T13:35:35.140Z,27.91
2018-07-30T13:36:38.526Z,27.90
2018-07-30T13:37:41.995Z,27.91